Time;durP1;ratioP1;P1;durP2;ratioP2;P2;SDS_P1;SDS_P2;PMS_P1;PMS_P2;Temp;Humidity;BMP_temperature;BMP_pressure;BME280_temperature;BME280_humidity;BME280_pressure;Samples;Min_cycle;Max_cycle;Signal;HPM_P1;HPM_P2
2023/02/21 02:14:45;;;;;;;3.9;2;;;;;;;;;;;;;
2023/02/21 02:17:10;;;;;;;2.8;1.7;;;;;;;;;;;;;
2023/02/21 02:19:35;;;;;;;4;1.8;;;;;;;;;;;;;
2023/02/21 02:22:00;;;;;;;5.6;2.5;;;;;;;;;;;;;
2023/02/21 02:24:25;;;;;;;6.7;3.4;;;;;;;;;;;;;
2023/02/21 02:26:51;;;;;;;18.7;7.8;;;;;;;;;;;;;
2023/02/21 02:29:16;;;;;;;20.5;8.5;;;;;;;;;;;;;
2023/02/21 02:31:41;;;;;;;22.3;9.5;;;;;;;;;;;;;
2023/02/21 02:34:07;;;;;;;16.1;7.8;;;;;;;;;;;;;
2023/02/21 02:36:33;;;;;;;13.6;5.2;;;;;;;;;;;;;
2023/02/21 02:38:58;;;;;;;5.6;2.6;;;;;;;;;;;;;
2023/02/21 02:41:23;;;;;;;6.2;2.7;;;;;;;;;;;;;
2023/02/21 02:43:51;;;;;;;3.2;2.1;;;;;;;;;;;;;
2023/02/21 02:46:16;;;;;;;3.3;1.8;;;;;;;;;;;;;
2023/02/21 02:48:41;;;;;;;3.9;1.7;;;;;;;;;;;;;
2023/02/21 02:51:06;;;;;;;2.2;1.3;;;;;;;;;;;;;
2023/02/21 02:53:32;;;;;;;5.6;1.7;;;;;;;;;;;;;
2023/02/21 02:55:57;;;;;;;4;1.9;;;;;;;;;;;;;
2023/02/21 02:58:23;;;;;;;3.8;1.7;;;;;;;;;;;;;
2023/02/21 03:00:48;;;;;;;4.1;1.9;;;;;;;;;;;;;
2023/02/21 03:03:15;;;;;;;4.8;2;;;;;;;;;;;;;
2023/02/21 03:05:40;;;;;;;11;3.2;;;;;;;;;;;;;
2023/02/21 03:08:06;;;;;;;4.1;2.4;;;;;;;;;;;;;
2023/02/21 03:10:31;;;;;;;7.6;2.4;;;;;;;;;;;;;
2023/02/21 03:12:56;;;;;;;5.6;2.2;;;;;;;;;;;;;
2023/02/21 03:15:23;;;;;;;4.3;1.6;;;;;;;;;;;;;
2023/02/21 03:17:48;;;;;;;3.5;1.7;;;;;;;;;;;;;
2023/02/21 03:20:15;;;;;;;2;1.5;;;;;;;;;;;;;
2023/02/21 03:22:40;;;;;;;2.6;1.4;;;;;;;;;;;;;
2023/02/21 03:25:05;;;;;;;3.3;1.8;;;;;;;;;;;;;
2023/02/21 03:27:31;;;;;;;3;1.7;;;;;;;;;;;;;
2023/02/21 03:29:56;;;;;;;3.4;1.7;;;;;;;;;;;;;
2023/02/21 03:34:49;;;;;;;3.7;1.4;;;;;;;;;;;;;
2023/02/21 03:37:14;;;;;;;10.8;3.2;;;;;;;;;;;;;
2023/02/21 03:39:40;;;;;;;3.5;1.5;;;;;;;;;;;;;
2023/02/21 03:42:05;;;;;;;2.8;1.4;;;;;;;;;;;;;
2023/02/21 03:44:30;;;;;;;2.8;1.6;;;;;;;;;;;;;
2023/02/21 03:46:56;;;;;;;3.3;1.6;;;;;;;;;;;;;
2023/02/21 03:49:23;;;;;;;2.7;1.4;;;;;;;;;;;;;
2023/02/21 03:51:48;;;;;;;3.6;1.7;;;;;;;;;;;;;
2023/02/21 03:54:13;;;;;;;3.8;2;;;;;;;;;;;;;
2023/02/21 03:56:38;;;;;;;3.8;2;;;;;;;;;;;;;
2023/02/21 03:59:03;;;;;;;3.2;1.9;;;;;;;;;;;;;
2023/02/21 04:02:39;;;;;;;1.5;1.4;;;;;;;2.24;71.24414;941.6592;;;;
2023/02/21 04:05:17;;;;;;;3.2;1.5;;;;;;;2.22;71.12012;941.7371;;;;
2023/02/21 04:07:49;;;;;;;3;1.4;;;;;;;2.26;70.8457;941.7232;;;;
2023/02/21 04:10:19;;;;;;;2.2;1.7;;;;;;;2.27;70.81348;941.7596;;;;
2023/02/21 04:12:44;;;;;;;2.5;1.5;;;;;;;2.13;71.47266;941.7405;;;;
2023/02/21 04:15:18;;;;;;;2.1;1.5;;;;;;;2.05;71.65039;941.6088;;;;
2023/02/21 04:17:45;;;;;;;4.1;1.6;;;;;;;1.99;71.89746;941.6487;;;;
2023/02/21 04:20:21;;;;;;;4.6;1.5;;;;;;;2.01;71.83301;941.6774;;;;
2023/02/21 04:22:52;;;;;;;2.3;1.5;;;;;;;2.11;71.28027;941.7294;;;;
2023/02/21 04:25:25;;;;;;;8.1;2.1;;;;;;;2.13;71.2168;941.5952;;;;
2023/02/21 04:27:57;;;;;;;3;1.6;;;;;;;2.13;71.34961;941.7254;;;;
2023/02/21 04:30:29;;;;;;;4.2;1.9;;;;;;;2.15;71.35449;941.6437;;;;
2023/02/21 04:33:04;;;;;;;3.6;1.8;;;;;;;2.08;71.8457;941.713;;;;
2023/02/21 04:35:29;;;;;;;3.3;1.8;;;;;;;1.89;72.50684;941.7155;;;;
2023/02/21 04:37:59;;;;;;;4.8;2.1;;;;;;;1.73;73.15039;941.6967;;;;
2023/02/21 04:40:24;;;;;;;2.1;1.4;;;;;;;1.62;73.70215;941.7332;;;;
2023/02/21 04:42:51;;;;;;;3.2;1.7;;;;;;;1.58;73.86328;941.7575;;;;
2023/02/21 04:45:16;;;;;;;2.5;1.5;;;;;;;1.71;73.3916;941.6962;;;;
2023/02/21 04:47:43;;;;;;;3.6;1.4;;;;;;;1.83;72.56348;941.7503;;;;
2023/02/21 04:50:08;;;;;;;3.8;1.7;;;;;;;1.92;72.13184;941.7405;;;;
2023/02/21 04:52:36;;;;;;;3.3;2;;;;;;;1.88;71.91309;941.7536;;;;
2023/02/21 04:55:01;;;;;;;2.2;1.9;;;;;;;1.83;71.89258;941.7606;;;;
2023/02/21 04:57:33;;;;;;;3.7;2.8;;;;;;;1.81;72.05859;941.668;;;;
2023/02/21 05:00:05;;;;;;;3.7;2;;;;;;;1.87;71.87793;941.7271;;;;
2023/02/21 05:02:27;;;;;;;6.1;2.7;;;;;;;1.97;72.0957;941.7018;;;;
2023/02/21 05:04:57;;;;;;;5.3;2.6;;;;;;;2.04;71.61426;941.685;;;;
2023/02/21 05:07:23;;;;;;;4.6;2.5;;;;;;;2.11;71.20215;941.7404;;;;
2023/02/21 05:09:50;;;;;;;4.7;1.9;;;;;;;2.14;70.98145;941.7751;;;;
2023/02/21 05:12:16;;;;;;;4.9;2.5;;;;;;;2.16;70.93945;941.7658;;;;
2023/02/21 05:14:46;;;;;;;3.4;2.1;;;;;;;2.12;71.10156;941.7988;;;;
2023/02/21 05:17:19;;;;;;;5.1;2.8;;;;;;;1.92;71.51563;941.7522;;;;
2023/02/21 05:19:43;;;;;;;5.7;2.8;;;;;;;1.77;72.22852;941.7494;;;;
2023/02/21 05:22:19;;;;;;;10.4;3.5;;;;;;;1.74;72.28125;941.7459;;;;
2023/02/21 05:24:41;;;;;;;5.8;2;;;;;;;1.73;71.96289;941.7395;;;;
2023/02/21 05:27:10;;;;;;;4.3;2;;;;;;;1.73;71.97656;941.7106;;;;
2023/02/21 05:29:33;;;;;;;2.9;1.7;;;;;;;1.65;72.1748;941.7297;;;;
2023/02/21 05:31:58;;;;;;;2.4;1.5;;;;;;;1.61;72.53613;941.6875;;;;
2023/02/21 05:34:27;;;;;;;2.9;1.3;;;;;;;1.64;72.2627;941.585;;;;
2023/02/21 05:36:52;;;;;;;5;1.7;;;;;;;1.66;71.96582;941.6494;;;;
2023/02/21 05:39:23;;;;;;;3.8;1.5;;;;;;;1.71;71.84961;941.7169;;;;
2023/02/21 05:41:54;;;;;;;4.4;1.6;;;;;;;1.82;71.46582;941.7254;;;;
2023/02/21 05:44:19;;;;;;;3.3;1.2;;;;;;;1.82;71.0293;941.7222;;;;
2023/02/21 05:46:47;;;;;;;3.9;1.7;;;;;;;1.76;70.79492;941.7489;;;;
2023/02/21 05:49:11;;;;;;;3.8;1.4;;;;;;;1.69;71.25391;941.7676;;;;
2023/02/21 05:51:38;;;;;;;4.9;1.7;;;;;;;1.71;71.24414;941.7527;;;;
2023/02/21 05:55:04;;;;;;;4.9;1.7;;;;;;;1.72;71.31445;941.7344;;;;
2023/02/21 05:57:29;;;;;;;3;1.3;;;;;;;1.81;70.93848;941.7205;;;;
2023/02/21 05:59:55;;;;;;;4.4;1.5;;;;;;;1.84;70.65332;941.7272;;;;
2023/02/21 06:02:20;;;;;;;6.1;3.2;;;;;;;1.81;70.9834;941.7014;;;;
2023/02/21 06:04:48;;;;;;;6.2;2.2;;;;;;;1.85;70.95508;941.7244;;;;
2023/02/21 06:07:14;;;;;;;5.5;2.7;;;;;;;1.87;70.99316;941.7098;;;;
2023/02/21 06:09:43;;;;;;;5.6;3.4;;;;;;;1.75;71.20898;941.6365;;;;
2023/02/21 06:12:08;;;;;;;10.1;3.8;;;;;;;1.76;71.62305;941.6053;;;;
2023/02/21 06:14:33;;;;;;;9.8;4.8;;;;;;;1.69;71.78027;941.7513;;;;
2023/02/21 06:17:04;;;;;;;11.7;6.2;;;;;;;1.53;72.26855;941.7104;;;;
2023/02/21 06:19:33;;;;;;;8.7;4.2;;;;;;;1.45;73.03516;941.7166;;;;
2023/02/21 06:21:58;;;;;;;6.3;3.6;;;;;;;1.53;73.27246;941.6387;;;;
2023/02/21 06:24:27;;;;;;;10.4;3.5;;;;;;;1.56;72.44043;941.6756;;;;
2023/02/21 06:26:53;;;;;;;8.3;2.6;;;;;;;1.65;71.87305;941.7195;;;;
2023/02/21 06:29:22;;;;;;;6.8;3;;;;;;;1.7;71.71289;941.7397;;;;
2023/02/21 06:31:47;;;;;;;7;3.8;;;;;;;1.78;71.92773;941.7664;;;;
2023/02/21 06:34:18;;;;;;;5.3;3.3;;;;;;;1.97;71.49121;941.7288;;;;
2023/02/21 06:36:49;;;;;;;9;3.7;;;;;;;1.89;70.82715;941.7813;;;;
2023/02/21 06:39:14;;;;;;;8.5;5.2;;;;;;;1.87;71.18262;941.8133;;;;
2023/02/21 06:41:44;;;;;;;12.5;4.7;;;;;;;1.97;71.09961;941.8677;;;;
2023/02/21 06:44:10;;;;;;;12.4;5;;;;;;;1.97;70.9209;941.8236;;;;
2023/02/21 06:46:36;;;;;;;10.7;4.8;;;;;;;1.93;70.87988;941.8044;;;;
2023/02/21 06:49:00;;;;;;;11;4.8;;;;;;;2.09;71.5332;941.8201;;;;
2023/02/21 06:51:28;;;;;;;14.1;6.9;;;;;;;2.46;69.52344;941.8572;;;;
2023/02/21 06:53:52;;;;;;;17.8;7.1;;;;;;;2.83;68.55371;941.847;;;;
2023/02/21 06:56:17;;;;;;;8.2;4.1;;;;;;;3.24;66.87891;941.8644;;;;
2023/02/21 06:58:44;;;;;;;11.1;3.9;;;;;;;3.47;64.79199;941.7972;;;;
2023/02/21 07:01:10;;;;;;;7.1;1.9;;;;;;;3.76;66.5332;941.8755;;;;
2023/02/21 07:03:38;;;;;;;3.6;1.8;;;;;;;4;64.88281;941.7985;;;;
2023/02/21 07:06:04;;;;;;;4.9;1.8;;;;;;;4.27;62.31445;941.8106;;;;
2023/02/21 07:08:30;;;;;;;8.2;2.4;;;;;;;4.46;60.96973;941.7985;;;;
2023/02/21 07:10:55;;;;;;;7.4;2.4;;;;;;;4.58;60.5127;941.7729;;;;
2023/02/21 07:13:23;;;;;;;11;2.8;;;;;;;4.81;59.58789;941.7244;;;;
2023/02/21 07:15:48;;;;;;;4.4;2;;;;;;;4.92;57.76563;941.6951;;;;
2023/02/21 07:18:15;;;;;;;9.2;5;;;;;;;4.81;58.56348;941.7064;;;;
2023/02/21 07:20:40;;;;;;;2.6;1.8;;;;;;;4.97;57.76074;941.6345;;;;
2023/02/21 07:23:05;;;;;;;6.5;2.1;;;;;;;5.29;57.12793;941.7126;;;;
2023/02/21 07:25:34;;;;;;;6.5;2;;;;;;;5.48;56.05859;941.7281;;;;
2023/02/21 07:27:59;;;;;;;4.6;2.5;;;;;;;5.37;56.46191;941.7234;;;;
2023/02/21 07:30:30;;;;;;;4.7;2.7;;;;;;;5.34;56.94336;941.6845;;;;
2023/02/21 07:32:57;;;;;;;7;3.5;;;;;;;5.51;56.66211;941.6788;;;;
2023/02/21 07:35:22;;;;;;;10.9;3.9;;;;;;;5.69;56.59473;941.688;;;;
2023/02/21 07:37:49;;;;;;;11.8;4.2;;;;;;;5.92;55.67676;941.6757;;;;
2023/02/21 07:40:15;;;;;;;7;3;;;;;;;6.31;54.55078;941.7162;;;;
2023/02/21 07:42:42;;;;;;;9.2;3.3;;;;;;;6.95;52.37988;941.6632;;;;
2023/02/21 07:45:05;;;;;;;8.6;3;;;;;;;7.35;51.0459;941.6677;;;;
2023/02/21 07:47:38;;;;;;;5.4;3;;;;;;;7.43;49.97852;941.632;;;;
2023/02/21 07:50:06;;;;;;;4;2.4;;;;;;;7.56;50.03809;941.5989;;;;
2023/02/21 07:52:31;;;;;;;5.6;2.7;;;;;;;7.78;48.62402;941.5566;;;;
2023/02/21 07:54:56;;;;;;;5;1.8;;;;;;;7.94;48.10742;941.5878;;;;
2023/02/21 07:57:26;;;;;;;5.5;1.9;;;;;;;8.57;46.53125;941.5837;;;;
2023/02/21 07:59:51;;;;;;;6;2.6;;;;;;;8.53;46.14063;941.5678;;;;
2023/02/21 08:02:20;;;;;;;6.3;1.9;;;;;;;8.62;44.82031;941.5591;;;;
2023/02/21 08:04:47;;;;;;;3.3;1.6;;;;;;;9.07;44.80957;941.4969;;;;
2023/02/21 08:07:12;;;;;;;5.8;1.5;;;;;;;9.58;43.64355;941.5675;;;;
2023/02/21 08:09:37;;;;;;;3.6;1.6;;;;;;;9.69;43.2334;941.558;;;;
2023/02/21 08:12:04;;;;;;;3.1;1.6;;;;;;;9.56;43.11914;941.5283;;;;
2023/02/21 08:14:29;;;;;;;3.2;1.4;;;;;;;10.2;42.40625;941.5209;;;;
2023/02/21 08:16:58;;;;;;;6.6;1.6;;;;;;;9.59;42.4375;941.5256;;;;
2023/02/21 08:19:27;;;;;;;4.3;1.4;;;;;;;9.54;43.03613;941.5406;;;;
2023/02/21 08:21:52;;;;;;;4;1.4;;;;;;;9.86;42.9541;941.5181;;;;
2023/02/21 08:24:20;;;;;;;3.2;1.5;;;;;;;9.65;42.83008;941.488;;;;
2023/02/21 08:26:46;;;;;;;4;1.3;;;;;;;9.5;42.58887;941.5001;;;;
2023/02/21 08:29:13;;;;;;;4.1;1.2;;;;;;;9.28;43.12402;941.5219;;;;
2023/02/21 08:31:38;;;;;;;4.4;1.5;;;;;;;9.55;42.57031;941.4668;;;;
2023/02/21 08:34:05;;;;;;;3.3;1.4;;;;;;;10.63;40.56445;941.4124;;;;
2023/02/21 08:36:30;;;;;;;3.8;1.3;;;;;;;11.11;39.05469;941.3945;;;;
2023/02/21 08:39:00;;;;;;;6.1;1.3;;;;;;;11.74;38.48145;941.3872;;;;
2023/02/21 08:41:29;;;;;;;4.3;1.7;;;;;;;12.57;37.33887;941.3444;;;;
2023/02/21 08:43:54;;;;;;;5.3;1.8;;;;;;;13.04;36.15039;941.2552;;;;
2023/02/21 08:46:23;;;;;;;6.9;3.3;;;;;;;14.4;34.8584;941.2706;;;;
2023/02/21 08:48:48;;;;;;;2.7;1.7;;;;;;;13.75;34.14941;941.278;;;;
2023/02/21 08:51:14;;;;;;;4.9;2.1;;;;;;;14.71;33.48828;941.2751;;;;
2023/02/21 08:53:39;;;;;;;6.4;2.1;;;;;;;14.25;33.61426;941.313;;;;
2023/02/21 08:56:06;;;;;;;13;4.6;;;;;;;16.64;31.21582;941.2472;;;;
2023/02/21 08:58:31;;;;;;;4.4;2.1;;;;;;;17.87;29.01563;941.1299;;;;
2023/02/21 09:00:58;;;;;;;4.6;2;;;;;;;18.72;27.02441;941.1552;;;;
2023/02/21 09:03:23;;;;;;;7.6;2.9;;;;;;;18.87;27.37109;941.1585;;;;
2023/02/21 09:05:48;;;;;;;5.6;1.4;;;;;;;17.73;27.88086;941.1155;;;;
2023/02/21 09:08:19;;;;;;;2.4;1.4;;;;;;;16.73;29.0918;941.1284;;;;
2023/02/21 09:10:46;;;;;;;2.4;1.2;;;;;;;17.93;28.4043;941.0959;;;;
2023/02/21 09:13:05;;;;;;;3.4;1.5;;;;;;;17.55;28.31055;941.1292;;;;
2023/02/21 09:15:35;;;;;;;2.1;1.1;;;;;;;16.73;29.17285;941.0503;;;;
2023/02/21 09:18:06;;;;;;;3.3;1.6;;;;;;;17.3;29.53516;941.0226;;;;
2023/02/21 09:20:31;;;;;;;3.9;1.1;;;;;;;17.48;27.66797;941.1188;;;;
2023/02/21 09:23:02;;;;;;;2.2;1.3;;;;;;;16.55;29.1377;941.1303;;;;
2023/02/21 09:25:32;;;;;;;1.8;1.1;;;;;;;16.58;28.87305;941.0705;;;;
2023/02/21 09:27:59;;;;;;;5.1;1.9;;;;;;;15.38;29.94922;941.0983;;;;
2023/02/21 09:30:28;;;;;;;5.9;1.9;;;;;;;16.77;28.14453;941.0154;;;;
2023/02/21 09:33:01;;;;;;;4.8;1.9;;;;;;;15.7;28.79199;941.092;;;;
2023/02/21 09:35:30;;;;;;;5.7;1;;;;;;;15.66;30.07129;941.0602;;;;
2023/02/21 09:38:02;;;;;;;3.8;1.1;;;;;;;15.43;30.33301;941.0005;;;;
2023/02/21 09:40:27;;;;;;;4.7;1.4;;;;;;;15.5;30.0957;940.9222;;;;
2023/02/21 09:42:54;;;;;;;7.5;1.6;;;;;;;14.72;31.44824;940.8078;;;;
2023/02/21 09:45:21;;;;;;;4.1;1.3;;;;;;;15.24;30.46973;940.8639;;;;
2023/02/21 09:47:47;;;;;;;3.2;1.1;;;;;;;15.12;31.18848;940.8794;;;;
2023/02/21 09:50:12;;;;;;;4.3;1.2;;;;;;;15.88;30.73438;940.8767;;;;
2023/02/21 09:52:37;;;;;;;4.2;1.6;;;;;;;16.18;29.56348;940.8588;;;;
2023/02/21 09:55:02;;;;;;;3.7;0.9;;;;;;;16.15;29.79297;940.8743;;;;
2023/02/21 09:57:29;;;;;;;4.1;1.1;;;;;;;16.4;29.19629;940.8411;;;;
2023/02/21 10:00:00;;;;;;;5.1;1.5;;;;;;;16.52;28.11719;940.8058;;;;
2023/02/21 10:02:29;;;;;;;4;1.5;;;;;;;16.05;28.04004;940.8702;;;;
2023/02/21 10:04:58;;;;;;;4.3;1.7;;;;;;;16.07;28.01855;940.8315;;;;
2023/02/21 10:07:25;;;;;;;5.4;1.6;;;;;;;17.02;27.09473;940.7664;;;;
2023/02/21 10:09:54;;;;;;;2.5;1.8;;;;;;;17;27.29004;940.7656;;;;
2023/02/21 10:12:19;;;;;;;6.5;2.4;;;;;;;17.22;26.44629;940.7836;;;;
2023/02/21 10:14:44;;;;;;;5.7;1.4;;;;;;;17.14;28.14551;940.7787;;;;
2023/02/21 10:17:13;;;;;;;2.1;1.3;;;;;;;17.31;27.39063;940.7665;;;;
2023/02/21 10:19:38;;;;;;;3.6;1.3;;;;;;;17.9;27.7168;940.6493;;;;
2023/02/21 10:22:04;;;;;;;8.2;1.8;;;;;;;18.11;26.37207;940.681;;;;
2023/02/21 10:24:29;;;;;;;3.1;1.2;;;;;;;17.32;27.2168;940.7028;;;;
2023/02/21 10:26:59;;;;;;;1.9;1.1;;;;;;;18.05;26.53027;940.653;;;;
2023/02/21 10:29:24;;;;;;;2.2;0.9;;;;;;;18.56;26.77051;940.5822;;;;
2023/02/21 10:31:51;;;;;;;1.9;0.9;;;;;;;18.33;26.66309;940.606;;;;
2023/02/21 10:34:17;;;;;;;1.5;0.9;;;;;;;18.59;25.87695;940.6519;;;;
2023/02/21 10:36:45;;;;;;;3.9;1.1;;;;;;;18.59;25.72559;940.5825;;;;
2023/02/21 10:39:10;;;;;;;2.8;0.7;;;;;;;18.28;26.04395;940.598;;;;
2023/02/21 10:41:38;;;;;;;3.2;1.1;;;;;;;19.14;25.29199;940.5748;;;;
2023/02/21 10:44:03;;;;;;;4.6;1.4;;;;;;;19.43;25.04102;940.5945;;;;
2023/02/21 10:46:31;;;;;;;2.1;0.9;;;;;;;19.76;23.67188;940.5081;;;;
2023/02/21 10:48:58;;;;;;;3.4;0.9;;;;;;;19.23;24.58594;940.4775;;;;
2023/02/21 10:51:26;;;;;;;1.5;0.7;;;;;;;18.68;23.88184;940.3742;;;;
2023/02/21 10:53:51;;;;;;;4.2;0.7;;;;;;;19.43;23.79395;940.4194;;;;
2023/02/21 10:56:17;;;;;;;4.2;1.2;;;;;;;20.13;23.42285;940.3507;;;;
2023/02/21 10:58:43;;;;;;;2.9;0.8;;;;;;;20.66;22.92578;940.3069;;;;
2023/02/21 11:01:09;;;;;;;1.4;0.8;;;;;;;21.35;22.69238;940.204;;;;
2023/02/21 11:03:35;;;;;;;2.5;0.9;;;;;;;21.47;22.62793;940.1741;;;;
2023/02/21 11:06:02;;;;;;;4.9;1.3;;;;;;;21.52;23.12207;940.1726;;;;
2023/02/21 11:08:27;;;;;;;1.7;0.8;;;;;;;21.55;22.40918;940.1239;;;;
2023/02/21 11:10:54;;;;;;;4;0.8;;;;;;;22.26;21.31934;940.0773;;;;
2023/02/21 11:13:19;;;;;;;1;0.7;;;;;;;22.86;20.64355;940.0215;;;;
2023/02/21 11:15:52;;;;;;;2.1;0.7;;;;;;;23.17;20.46973;939.9984;;;;
2023/02/21 11:18:17;;;;;;;2.5;1;;;;;;;23.63;19.71484;939.9606;;;;
2023/02/21 11:20:42;;;;;;;1.4;0.8;;;;;;;23.4;19.99902;939.9512;;;;
2023/02/21 11:23:09;;;;;;;1.1;0.8;;;;;;;23.34;20.06641;939.9194;;;;
2023/02/21 11:25:34;;;;;;;2.1;0.8;;;;;;;22.42;21.2334;939.8591;;;;
2023/02/21 11:28:00;;;;;;;1.9;0.7;;;;;;;22.26;21.07324;939.7779;;;;
2023/02/21 11:30:29;;;;;;;2;0.8;;;;;;;22.8;20.18359;939.7143;;;;
2023/02/21 11:32:54;;;;;;;2.8;1;;;;;;;23.47;19.66016;939.754;;;;
2023/02/21 11:35:22;;;;;;;1.4;0.7;;;;;;;23.73;19.43652;939.7037;;;;
2023/02/21 11:37:48;;;;;;;1.6;0.7;;;;;;;23.6;20.18457;939.6216;;;;
2023/02/21 11:40:13;;;;;;;0.9;0.7;;;;;;;24.29;19.47266;939.5342;;;;
2023/02/21 11:42:38;;;;;;;1.5;0.6;;;;;;;24.69;20.02148;939.512;;;;
2023/02/21 11:45:10;;;;;;;3.7;0.9;;;;;;;25.4;20.65527;939.4597;;;;
2023/02/21 11:47:39;;;;;;;1.3;0.7;;;;;;;26.46;20.37305;939.447;;;;
2023/02/21 11:50:08;;;;;;;1.4;0.9;;;;;;;27.32;19.17871;939.4176;;;;
2023/02/21 11:52:33;;;;;;;1.4;1;;;;;;;29.21;17.83008;939.4128;;;;
2023/02/21 11:54:58;;;;;;;2.9;1.1;;;;;;;29.82;16.18457;939.3627;;;;
2023/02/21 11:57:30;;;;;;;1.3;0.6;;;;;;;30.08;16.26563;939.2681;;;;
2023/02/21 11:59:55;;;;;;;2.2;1;;;;;;;29.72;17.50391;939.3105;;;;
2023/02/21 12:02:22;;;;;;;2.2;1.1;;;;;;;29.59;17.20117;939.226;;;;
2023/02/21 12:04:47;;;;;;;3.2;0.9;;;;;;;29.13;17.19531;939.1708;;;;
2023/02/21 12:07:12;;;;;;;1;0.8;;;;;;;29.11;17.58789;939.0927;;;;
2023/02/21 12:09:37;;;;;;;2.5;0.7;;;;;;;27.58;19.62793;939.1181;;;;
2023/02/21 12:12:03;;;;;;;1.1;0.9;;;;;;;26.81;19.97363;939.0567;;;;
2023/02/21 12:14:32;;;;;;;1.2;0.5;;;;;;;28.1;18.32129;938.9794;;;;
2023/02/21 12:17:02;;;;;;;5.3;1.3;;;;;;;27.76;18.91211;939.027;;;;
2023/02/21 12:19:30;;;;;;;1.2;0.7;;;;;;;29.22;17.55664;938.9397;;;;
2023/02/21 12:21:55;;;;;;;2.6;1.1;;;;;;;31.86;15.29883;938.9257;;;;
2023/02/21 12:24:20;;;;;;;1;0.6;;;;;;;33.31;14.66211;938.8688;;;;
2023/02/21 12:26:45;;;;;;;1.8;0.6;;;;;;;32.36;14.94434;938.8625;;;;
2023/02/21 12:29:10;;;;;;;2.1;0.8;;;;;;;34.62;13.35547;938.7924;;;;
2023/02/21 12:31:35;;;;;;;0.8;0.6;;;;;;;35.41;12.72559;938.7961;;;;
2023/02/21 12:34:06;;;;;;;2;1;;;;;;;33.47;14.00684;938.7371;;;;
2023/02/21 12:36:35;;;;;;;1.4;1;;;;;;;35.1;12.95898;938.713;;;;
2023/02/21 12:39:06;;;;;;;1.1;1;;;;;;;35.35;12.67578;938.7159;;;;
2023/02/21 12:41:34;;;;;;;1;0.9;;;;;;;33.49;14.31934;938.6538;;;;
2023/02/21 12:43:59;;;;;;;1;0.7;;;;;;;35.54;12.69336;938.6312;;;;
2023/02/21 12:46:31;;;;;;;3;1.1;;;;;;;35.11;12.30762;938.6145;;;;
2023/02/21 12:48:58;;;;;;;0.7;0.7;;;;;;;34.94;13.01465;938.512;;;;
2023/02/21 12:51:25;;;;;;;1.5;0.8;;;;;;;34.88;12.66309;938.4772;;;;
2023/02/21 12:53:50;;;;;;;2.2;0.8;;;;;;;34.73;13.10547;938.4819;;;;
2023/02/21 12:56:15;;;;;;;1;0.8;;;;;;;36.33;12.09766;938.4306;;;;
2023/02/21 12:58:41;;;;;;;1.8;0.9;;;;;;;36.82;11.89355;938.3499;;;;
2023/02/21 13:01:09;;;;;;;3.4;0.9;;;;;;;36.51;11.94531;938.3466;;;;
2023/02/21 13:03:33;;;;;;;2.6;1.1;;;;;;;35.2;12.79199;938.3438;;;;
2023/02/21 13:05:59;;;;;;;1.3;0.8;;;;;;;35.98;12.30664;938.2726;;;;
2023/02/21 13:08:23;;;;;;;1;0.9;;;;;;;35.29;12.79492;938.2504;;;;
2023/02/21 13:10:48;;;;;;;1;0.8;;;;;;;35.15;12.69434;938.229;;;;
2023/02/21 13:13:13;;;;;;;1.5;1;;;;;;;33.19;14.19043;938.0925;;;;
2023/02/21 13:15:40;;;;;;;2.3;0.8;;;;;;;35.41;12.84668;938.1334;;;;
2023/02/21 13:18:06;;;;;;;0.7;0.7;;;;;;;36.77;12.03711;938.0694;;;;
2023/02/21 13:20:32;;;;;;;2.2;0.9;;;;;;;33.42;14.30566;937.9977;;;;
2023/02/21 13:25:22;;;;;;;1.3;1;;;;;;;34.08;14.54297;937.9515;;;;
2023/02/21 13:27:52;;;;;;;1.5;1.1;;;;;;;31.85;16.06543;937.9399;;;;
2023/02/21 13:30:22;;;;;;;1;0.7;;;;;;;34.26;13.89844;937.8649;;;;
2023/02/21 13:32:49;;;;;;;1.4;0.8;;;;;;;35;13.46191;937.7949;;;;
2023/02/21 13:35:14;;;;;;;1;0.9;;;;;;;34.63;13.84961;937.7905;;;;
2023/02/21 13:37:39;;;;;;;0.9;0.7;;;;;;;31.83;15.22559;937.7665;;;;
2023/02/21 13:40:16;;;;;;;0.7;0.7;;;;;;;31.81;15.47656;937.6755;;;;
2023/02/21 13:42:41;;;;;;;1.4;0.7;;;;;;;31.14;15.59766;937.7145;;;;
2023/02/21 13:45:06;;;;;;;0.7;0.7;;;;;;;30.26;16.46289;937.6414;;;;
2023/02/21 13:47:37;;;;;;;1.3;0.8;;;;;;;29.86;16.5918;937.6403;;;;
2023/02/21 13:50:02;;;;;;;1.3;0.7;;;;;;;28.84;17.99414;937.5837;;;;
2023/02/21 13:52:33;;;;;;;1.3;0.7;;;;;;;29.31;17.05957;937.4678;;;;
2023/02/21 13:54:57;;;;;;;2.1;0.8;;;;;;;30.54;16.1748;937.4653;;;;
2023/02/21 13:57:23;;;;;;;2.1;0.9;;;;;;;28.53;18.45703;937.4892;;;;
2023/02/21 13:59:54;;;;;;;1.1;0.6;;;;;;;30.1;16.91016;937.414;;;;
2023/02/21 14:02:22;;;;;;;0.8;0.6;;;;;;;31.97;15.51855;937.334;;;;
2023/02/21 14:04:47;;;;;;;1.1;0.7;;;;;;;32.26;15.09668;937.3775;;;;
2023/02/21 14:07:12;;;;;;;2.4;0.6;;;;;;;30.76;16.26563;937.3605;;;;
2023/02/21 14:09:37;;;;;;;0.7;0.6;;;;;;;30.92;15.84082;937.3422;;;;
2023/02/21 14:12:07;;;;;;;1.4;0.7;;;;;;;30.14;16.41113;937.3254;;;;
2023/02/21 14:14:38;;;;;;;0.8;0.7;;;;;;;30.06;16.93262;937.2985;;;;
2023/02/21 14:17:07;;;;;;;1.8;0.9;;;;;;;29.76;16.7666;937.2357;;;;
2023/02/21 14:19:36;;;;;;;0.9;0.9;;;;;;;29.1;17.74219;937.1817;;;;
2023/02/21 14:22:03;;;;;;;1.5;0.8;;;;;;;28.77;18.07422;937.2167;;;;
2023/02/21 14:24:26;;;;;;;1.4;0.7;;;;;;;29.35;17.14453;937.2026;;;;
2023/02/21 14:26:56;;;;;;;1.1;0.6;;;;;;;28.58;17.62598;937.2068;;;;
2023/02/21 14:29:20;;;;;;;1.6;0.7;;;;;;;28.73;17.62012;937.1897;;;;
2023/02/21 14:31:45;;;;;;;0.5;0.5;;;;;;;29.64;16.60742;937.059;;;;
2023/02/21 14:34:10;;;;;;;1;0.6;;;;;;;29;17.08301;937.1509;;;;
2023/02/21 14:36:39;;;;;;;0.6;0.6;;;;;;;28.68;17.95117;937.1133;;;;
2023/02/21 14:39:11;;;;;;;2;0.6;;;;;;;29.31;17.11914;937.1026;;;;
2023/02/21 14:41:42;;;;;;;0.8;0.4;;;;;;;28.39;17.88086;937.0783;;;;
2023/02/21 14:44:07;;;;;;;0.5;0.5;;;;;;;28.86;17.36328;937.0442;;;;
2023/02/21 14:46:36;;;;;;;2.1;0.8;;;;;;;27.87;18.24023;937.0984;;;;
2023/02/21 14:49:06;;;;;;;1.2;0.7;;;;;;;28.05;18.27148;937.0042;;;;
2023/02/21 14:51:33;;;;;;;0.8;0.6;;;;;;;28.08;18.68848;937.0125;;;;
2023/02/21 14:53:58;;;;;;;1;0.7;;;;;;;28.92;17.99707;936.9744;;;;
2023/02/21 14:56:24;;;;;;;0.8;0.6;;;;;;;28.16;18.21582;936.9636;;;;
2023/02/21 14:58:49;;;;;;;0.9;0.7;;;;;;;27.49;18.74707;936.8939;;;;
2023/02/21 15:01:16;;;;;;;1;0.9;;;;;;;27.42;18.79102;936.8937;;;;
2023/02/21 15:03:45;;;;;;;2;0.8;;;;;;;27.79;18.35547;936.8495;;;;
2023/02/21 15:06:17;;;;;;;0.9;0.4;;;;;;;28.5;18.02832;936.8127;;;;
2023/02/21 15:08:39;;;;;;;1.4;0.5;;;;;;;28.46;17.93164;936.8297;;;;
2023/02/21 15:11:04;;;;;;;1.2;0.5;;;;;;;28.26;18.05371;936.824;;;;
2023/02/21 15:13:29;;;;;;;0.5;0.5;;;;;;;28.48;17.71777;936.7786;;;;
2023/02/21 15:16:00;;;;;;;0.5;0.5;;;;;;;28.1;18.17871;936.767;;;;
2023/02/21 15:18:32;;;;;;;2.7;0.6;;;;;;;27.67;18.38672;936.7498;;;;
2023/02/21 15:20:56;;;;;;;0.6;0.5;;;;;;;27.71;18.34082;936.6852;;;;
2023/02/21 15:23:28;;;;;;;0.8;0.6;;;;;;;26.16;19.85059;936.7964;;;;
2023/02/21 15:25:46;;;;;;;1.2;0.7;;;;;;;26.68;19.41211;936.7488;;;;
2023/02/21 15:28:15;;;;;;;4.5;0.9;;;;;;;26.59;19.78613;936.7358;;;;
2023/02/21 15:30:40;;;;;;;2.3;0.6;;;;;;;26.38;19.76563;936.7466;;;;
2023/02/21 15:33:07;;;;;;;0.6;0.4;;;;;;;26.32;19.72754;936.7497;;;;
2023/02/21 15:35:32;;;;;;;0.7;0.5;;;;;;;26.25;19.80664;936.6791;;;;
2023/02/21 15:38:02;;;;;;;0.8;0.6;;;;;;;22.94;22.96094;936.6522;;;;
2023/02/21 15:40:32;;;;;;;0.9;0.7;;;;;;;21.73;24.45703;936.6898;;;;
2023/02/21 15:43:03;;;;;;;2.2;0.7;;;;;;;20.72;25.72168;936.6935;;;;
2023/02/21 15:45:29;;;;;;;2.3;0.6;;;;;;;19.92;26.9707;936.6534;;;;
2023/02/21 15:47:58;;;;;;;1.1;0.5;;;;;;;18.98;28.35547;936.65;;;;
2023/02/21 15:50:23;;;;;;;0.8;0.5;;;;;;;18.99;28.18164;936.548;;;;
2023/02/21 15:52:52;;;;;;;1.7;0.7;;;;;;;18.58;28.87695;936.6082;;;;
2023/02/21 15:55:21;;;;;;;1.7;0.7;;;;;;;18.27;29.58887;936.5634;;;;
2023/02/21 15:57:48;;;;;;;1;0.8;;;;;;;18.14;29.67383;936.6281;;;;
2023/02/21 16:00:22;;;;;;;1;0.9;;;;;;;17.97;30.01074;936.5922;;;;
2023/02/21 16:02:51;;;;;;;2.3;1;;;;;;;17.32;30.97461;936.5471;;;;
2023/02/21 16:05:20;;;;;;;1.3;0.8;;;;;;;16.94;31.88574;936.5577;;;;
2023/02/21 16:07:52;;;;;;;2.8;1;;;;;;;16.7;32.40137;936.584;;;;
2023/02/21 16:10:22;;;;;;;4.8;1.1;;;;;;;16.58;32.98242;936.5339;;;;
2023/02/21 16:12:49;;;;;;;2.7;1.4;;;;;;;16.49;33.40527;936.5097;;;;
2023/02/21 16:15:23;;;;;;;1.5;1.1;;;;;;;16.21;33.73047;936.5084;;;;
2023/02/21 16:17:51;;;;;;;3.6;1.4;;;;;;;15.77;37.23242;936.5383;;;;
2023/02/21 16:20:23;;;;;;;1.2;0.7;;;;;;;15.24;36.66895;936.5672;;;;
2023/02/21 16:22:48;;;;;;;2.9;1.2;;;;;;;15.01;36.87988;936.5803;;;;
2023/02/21 16:25:20;;;;;;;1.7;0.9;;;;;;;15.05;36.84863;936.6083;;;;
2023/02/21 16:27:46;;;;;;;7.5;1.7;;;;;;;15.07;36.89551;936.6121;;;;
2023/02/21 16:30:23;;;;;;;2.5;0.9;;;;;;;14.93;37.42676;936.6332;;;;
2023/02/21 16:32:56;;;;;;;3.4;1.5;;;;;;;14.51;37.35547;936.6669;;;;
2023/02/21 16:35:24;;;;;;;2.8;1.4;;;;;;;14.33;37.78906;936.6718;;;;
2023/02/21 16:37:51;;;;;;;3.2;1.6;;;;;;;14.32;38.12305;936.6663;;;;
2023/02/21 16:40:23;;;;;;;4.7;1.2;;;;;;;14.25;37.94434;936.7364;;;;
2023/02/21 16:42:47;;;;;;;4.2;1.8;;;;;;;14.11;36.84961;936.677;;;;
2023/02/21 16:45:19;;;;;;;3.7;1.8;;;;;;;13.9;37.91406;936.7645;;;;
2023/02/21 16:47:47;;;;;;;6.1;2.4;;;;;;;13.8;38.10059;936.7576;;;;
2023/02/21 16:50:15;;;;;;;5.5;2.7;;;;;;;13.76;38.43066;936.8194;;;;
2023/02/21 16:52:40;;;;;;;6.6;3.6;;;;;;;13.61;38.98047;936.7991;;;;
2023/02/21 16:55:14;;;;;;;8.5;4.6;;;;;;;13.54;39.31934;936.8674;;;;
2023/02/21 16:57:40;;;;;;;12.3;5.7;;;;;;;13.44;39.94238;936.9022;;;;
2023/02/21 17:00:06;;;;;;;11.1;5.9;;;;;;;13.14;41.66113;936.8183;;;;
2023/02/21 17:02:31;;;;;;;11.5;7.4;;;;;;;13.01;41.59082;936.82;;;;
2023/02/21 17:05:01;;;;;;;15.5;9.6;;;;;;;12.9;41.60352;936.8418;;;;
2023/02/21 17:07:25;;;;;;;13.2;9.3;;;;;;;12.85;41.67871;936.9706;;;;
2023/02/21 17:09:50;;;;;;;11.9;7.9;;;;;;;12.75;41.97852;937.0016;;;;
2023/02/21 17:12:18;;;;;;;10.3;6;;;;;;;12.63;41.78516;936.9937;;;;
2023/02/21 17:14:43;;;;;;;17;5.9;;;;;;;12.49;43.20508;936.9919;;;;
2023/02/21 17:17:16;;;;;;;9.8;5.9;;;;;;;12.22;44.18555;936.9835;;;;
2023/02/21 17:19:40;;;;;;;8;2.8;;;;;;;11.99;44.5752;937.0823;;;;
2023/02/21 17:22:07;;;;;;;6.7;2.1;;;;;;;11.62;45.51074;937.0759;;;;